Time;durP1;ratioP1;P1;durP2;ratioP2;P2;SDS_P1;SDS_P2;PMS_P1;PMS_P2;Temp;Humidity;BMP_temperature;BMP_pressure;BME280_temperature;BME280_humidity;BME280_pressure;Samples;Min_cycle;Max_cycle;Signal;HPM_P1;HPM_P2
2022/12/07 00:01:07;;;;;;;7.87;7.07;;;2.60;99.90;;;;;;5088483;28;20736;-70
2022/12/07 00:03:35;;;;;;;9.13;6.80;;;2.60;99.90;;;;;;5088484;28;20630;-70
2022/12/07 00:06:03;;;;;;;7.67;6.77;;;2.60;99.90;;;;;;5088482;28;20301;-70
2022/12/07 00:08:31;;;;;;;7.97;7.17;;;2.60;99.90;;;;;;5088683;28;20254;-70
2022/12/07 00:11:02;;;;;;;8.27;7.33;;;2.60;99.90;;;;;;5087965;28;20238;-71
2022/12/07 00:13:29;;;;;;;8.37;6.60;;;2.50;99.90;;;;;;5087917;28;20285;-70
2022/12/07 00:15:56;;;;;;;7.37;6.67;;;2.50;99.90;;;;;;5088224;28;20211;-70
2022/12/07 00:18:23;;;;;;;7.97;6.10;;;2.50;99.90;;;;;;5088205;28;20254;-70
2022/12/07 00:20:50;;;;;;;6.90;6.20;;;2.50;99.90;;;;;;5088297;28;20291;-70
2022/12/07 00:23:17;;;;;;;6.57;5.40;;;2.40;99.90;;;;;;5088255;28;20207;-70
2022/12/07 00:25:45;;;;;;;5.53;5.07;;;2.30;99.90;;;;;;5087992;28;20222;-70
2022/12/07 00:28:12;;;;;;;5.17;4.60;;;2.30;99.90;;;;;;5088261;28;20296;-70
2022/12/07 00:30:39;;;;;;;5.30;4.80;;;2.30;99.90;;;;;;5087947;28;20209;-70
2022/12/07 00:33:06;;;;;;;4.97;4.57;;;2.20;99.90;;;;;;5087662;28;20275;-70
2022/12/07 00:35:33;;;;;;;5.80;5.20;;;2.20;99.90;;;;;;5087938;28;20202;-70
2022/12/07 00:37:59;;;;;;;5.40;4.90;;;2.20;99.90;;;;;;5087442;28;20195;-70
2022/12/07 00:40:26;;;;;;;4.87;4.57;;;2.20;99.90;;;;;;5087116;28;20268;-70
2022/12/07 00:42:54;;;;;;;5.00;4.60;;;2.20;99.90;;;;;;5087480;28;20294;-70
2022/12/07 00:45:21;;;;;;;5.13;4.63;;;2.20;99.90;;;;;;5088043;28;20203;-70
2022/12/07 00:47:48;;;;;;;4.77;4.37;;;2.20;99.90;;;;;;5087207;28;20777;-70
2022/12/07 00:50:15;;;;;;;4.83;4.43;;;2.20;99.90;;;;;;5087696;28;20211;-70
2022/12/07 00:52:42;;;;;;;4.97;4.57;;;2.20;99.90;;;;;;5087970;28;20306;-70
2022/12/07 00:55:09;;;;;;;4.40;4.00;;;2.20;99.90;;;;;;5087597;28;20206;-71
2022/12/07 00:57:36;;;;;;;5.40;5.00;;;2.20;99.90;;;;;;5087879;28;20242;-71
2022/12/07 01:00:05;;;;;;;5.53;5.03;;;2.30;99.90;;;;;;5087472;28;20233;-71
2022/12/07 01:02:32;;;;;;;4.70;4.37;;;2.30;99.90;;;;;;5087062;28;20317;-71
2022/12/07 01:04:59;;;;;;;4.47;4.17;;;2.30;99.90;;;;;;5087361;28;20297;-71
2022/12/07 01:07:26;;;;;;;4.77;4.37;;;2.30;99.90;;;;;;5087659;28;20423;-71
2022/12/07 01:09:53;;;;;;;4.80;4.40;;;2.30;99.90;;;;;;5087487;28;20214;-71
2022/12/07 01:12:20;;;;;;;4.33;3.93;;;2.20;99.90;;;;;;5087166;28;20665;-71
2022/12/07 01:14:47;;;;;;;4.97;4.60;;;2.30;99.90;;;;;;5087833;28;20293;-71
2022/12/07 01:17:15;;;;;;;4.60;4.30;;;2.20;99.90;;;;;;5087506;28;20297;-70
2022/12/07 01:19:42;;;;;;;3.80;3.60;;;2.30;99.90;;;;;;5087213;28;20219;-70
2022/12/07 01:22:08;;;;;;;4.23;3.90;;;2.30;99.90;;;;;;5067184;28;20298;-70
2022/12/07 01:24:35;;;;;;;4.30;4.00;;;2.30;99.90;;;;;;5080355;28;20760;-69
2022/12/07 01:27:02;;;;;;;4.13;3.73;;;2.20;99.90;;;;;;5086884;28;20289;-70
2022/12/07 01:29:29;;;;;;;4.17;3.87;;;2.20;99.90;;;;;;5087438;28;20294;-70
2022/12/07 01:31:56;;;;;;;3.83;3.53;;;2.30;99.90;;;;;;5087147;28;20295;-70
2022/12/07 01:34:24;;;;;;;4.23;3.93;;;2.20;99.90;;;;;;5087041;28;20641;-70
2022/12/07 01:36:51;;;;;;;4.50;4.20;;;2.20;99.90;;;;;;5086797;28;20199;-70
2022/12/07 01:39:18;;;;;;;3.90;3.60;;;2.20;99.90;;;;;;5086922;28;20329;-70
2022/12/07 01:41:45;;;;;;;3.43;3.20;;;2.20;99.90;;;;;;5087139;28;20301;-70
2022/12/07 01:44:17;;;;;;;4.30;3.90;;;2.20;99.90;;;;;;5087248;28;20213;-70
2022/12/07 01:46:46;;;;;;;4.27;3.97;;;2.20;99.90;;;;;;5087112;28;20582;-70
2022/12/07 01:49:19;;;;;;;4.47;4.13;;;2.10;99.90;;;;;;5086721;28;20268;-71
2022/12/07 01:51:50;;;;;;;3.83;3.60;;;2.10;99.90;;;;;;5087122;28;20199;-71
2022/12/07 01:54:17;;;;;;;4.07;3.77;;;2.10;99.90;;;;;;5090666;28;20250;-71
2022/12/07 01:56:51;;;;;;;4.43;4.10;;;2.10;99.90;;;;;;5091088;28;20282;-71
2022/12/07 01:59:20;;;;;;;4.67;4.27;;;2.10;99.90;;;;;;5090833;28;20257;-72
2022/12/07 02:01:47;;;;;;;3.90;3.67;;;2.10;99.90;;;;;;5090555;28;20796;-71
2022/12/07 02:04:15;;;;;;;4.30;3.93;;;2.10;99.90;;;;;;5091114;28;20290;-71
2022/12/07 02:06:43;;;;;;;3.37;3.17;;;2.00;99.90;;;;;;5090733;28;20217;-71
2022/12/07 02:09:12;;;;;;;4.20;3.90;;;2.00;99.90;;;;;;5090751;28;20213;-71
2022/12/07 02:11:41;;;;;;;4.57;4.17;;;1.90;99.90;;;;;;5090958;28;20289;-71
2022/12/07 02:14:08;;;;;;;4.60;4.20;;;1.90;99.90;;;;;;5096537;28;20237;-71
2022/12/07 02:16:43;;;;;;;4.50;4.10;;;1.90;99.90;;;;;;5111164;28;20300;-70
2022/12/07 02:19:41;;;;;;;4.20;3.90;;;1.80;99.90;;;;;;5096226;28;20238;-70
2022/12/07 02:22:33;;;;;;;4.87;4.47;;;1.90;99.90;;;;;;5076891;28;20201;-70
2022/12/07 02:25:09;;;;;;;4.20;3.87;;;1.80;99.90;;;;;;5090325;28;20231;-69
2022/12/07 02:27:45;;;;;;;4.57;4.23;;;1.80;99.90;;;;;;5090350;28;20195;-69
2022/12/07 02:30:14;;;;;;;4.13;3.83;;;1.80;99.90;;;;;;5090673;28;20271;-70
2022/12/07 02:32:48;;;;;;;4.97;4.57;;;1.80;99.90;;;;;;5090190;28;20206;-69
2022/12/07 02:35:20;;;;;;;4.80;4.40;;;1.80;99.90;;;;;;5090382;28;20298;-70
2022/12/07 02:37:56;;;;;;;4.90;4.50;;;1.80;99.90;;;;;;5090541;28;20218;-70
2022/12/07 02:40:28;;;;;;;5.00;4.50;;;1.70;99.90;;;;;;5089651;28;20659;-69
2022/12/07 02:43:02;;;;;;;5.10;4.70;;;1.80;99.90;;;;;;5090109;28;20183;-71
2022/12/07 02:45:32;;;;;;;5.93;5.20;;;1.80;99.90;;;;;;5090216;28;20191;-71
2022/12/07 02:48:01;;;;;;;6.03;5.30;;;1.80;99.90;;;;;;5090501;28;20213;-71
2022/12/07 02:50:28;;;;;;;5.73;4.87;;;1.90;99.90;;;;;;5090627;28;20214;-72
2022/12/07 02:52:55;;;;;;;6.43;5.40;;;1.80;99.90;;;;;;5089818;28;20653;-71
2022/12/07 02:55:26;;;;;;;5.90;5.30;;;1.80;99.90;;;;;;5090288;28;20289;-71
2022/12/07 02:58:26;;;;;;;5.73;5.23;;;1.80;99.90;;;;;;5090265;28;20277;-70
2022/12/07 03:01:05;;;;;;;5.80;5.27;;;1.80;99.90;;;;;;5083209;28;20231;-70
2022/12/07 03:03:33;;;;;;;7.93;6.03;;;1.80;99.90;;;;;;5089170;28;20668;-70
2022/12/07 03:06:09;;;;;;;5.57;5.07;;;1.80;99.90;;;;;;5069241;28;20286;-69
2022/12/07 03:08:49;;;;;;;6.07;5.47;;;1.90;99.90;;;;;;5069831;28;20225;-69
2022/12/07 03:11:22;;;;;;;7.03;6.33;;;1.90;99.90;;;;;;5069175;28;20764;-69
2022/12/07 03:13:56;;;;;;;7.90;6.60;;;1.90;99.90;;;;;;5069372;28;20658;-70
2022/12/07 03:16:28;;;;;;;7.27;6.47;;;2.00;99.90;;;;;;5077391;28;20285;-70
2022/12/07 03:18:57;;;;;;;6.60;6.00;;;2.00;99.90;;;;;;5088516;28;20198;-71
2022/12/07 03:21:28;;;;;;;7.77;6.90;;;2.00;99.90;;;;;;5088285;28;20293;-71
2022/12/07 03:23:57;;;;;;;9.30;6.57;;;2.10;99.90;;;;;;5088154;28;20219;-71
2022/12/07 03:26:31;;;;;;;7.10;6.40;;;2.10;99.90;;;;;;5089655;28;20270;-71
2022/12/07 03:29:05;;;;;;;7.27;6.53;;;2.10;99.90;;;;;;5082284;28;20227;-71
2022/12/07 03:31:37;;;;;;;7.83;6.67;;;2.10;99.90;;;;;;5087416;28;20285;-71
2022/12/07 03:34:11;;;;;;;7.53;6.73;;;2.10;99.90;;;;;;5087700;28;20554;-71
2022/12/07 03:36:41;;;;;;;7.77;6.97;;;2.20;99.90;;;;;;5088090;28;20194;-71
2022/12/07 03:39:17;;;;;;;7.40;6.70;;;2.20;99.90;;;;;;5087432;28;20654;-71
2022/12/07 03:41:45;;;;;;;8.80;6.83;;;2.10;99.90;;;;;;5087592;28;20195;-70
2022/12/07 03:44:13;;;;;;;10.47;7.17;;;2.10;99.90;;;;;;5087365;28;20298;-71
2022/12/07 03:46:46;;;;;;;8.93;7.40;;;2.20;99.90;;;;;;5087139;28;20236;-70
2022/12/07 03:49:23;;;;;;;8.57;7.57;;;2.10;99.90;;;;;;5077774;28;20380;-70
2022/12/07 03:51:56;;;;;;;8.90;7.30;;;2.20;99.90;;;;;;5070186;28;20194;-70
2022/12/07 03:54:27;;;;;;;9.87;7.40;;;2.20;99.90;;;;;;5087772;28;20286;-71
2022/12/07 03:56:56;;;;;;;8.00;7.20;;;2.20;99.90;;;;;;5087631;28;20293;-71
2022/12/07 03:59:24;;;;;;;8.43;7.47;;;2.20;99.90;;;;;;5087317;28;20325;-71
2022/12/07 04:01:55;;;;;;;10.13;7.83;;;2.20;99.90;;;;;;5085923;28;20230;-71
2022/12/07 04:04:22;;;;;;;11.10;8.30;;;2.20;99.90;;;;;;5083982;28;20278;-71
2022/12/07 04:06:49;;;;;;;12.10;8.53;;;2.10;99.90;;;;;;5083787;28;20294;-71
2022/12/07 04:09:16;;;;;;;9.80;7.97;;;2.10;99.90;;;;;;5087756;28;20246;-71
2022/12/07 04:11:43;;;;;;;10.13;8.20;;;2.10;99.90;;;;;;5088694;28;20358;-71
2022/12/07 04:14:19;;;;;;;10.80;8.83;;;2.20;99.90;;;;;;5087262;28;21049;-71
2022/12/07 04:16:46;;;;;;;12.30;9.13;;;2.20;99.90;;;;;;5088439;28;20221;-71
2022/12/07 04:19:15;;;;;;;11.27;9.17;;;2.10;99.90;;;;;;5088177;28;20230;-71
2022/12/07 04:21:42;;;;;;;12.87;9.33;;;2.10;99.90;;;;;;5088580;28;20241;-71
2022/12/07 04:24:09;;;;;;;13.97;9.40;;;2.10;99.90;;;;;;5088129;28;20273;-71
2022/12/07 04:26:36;;;;;;;13.33;9.70;;;2.20;99.90;;;;;;5088192;28;20289;-71
2022/12/07 04:29:03;;;;;;;13.33;9.60;;;2.20;99.90;;;;;;5088113;28;20798;-71
2022/12/07 04:31:30;;;;;;;13.73;10.10;;;2.20;99.90;;;;;;5088125;28;20289;-72
2022/12/07 04:33:57;;;;;;;14.93;10.47;;;2.20;99.90;;;;;;5087762;28;20297;-71
2022/12/07 04:36:25;;;;;;;12.33;10.03;;;2.20;99.90;;;;;;5088100;28;20302;-71
2022/12/07 04:38:54;;;;;;;14.80;10.37;;;2.10;99.90;;;;;;5088221;28;20228;-71
2022/12/07 04:41:26;;;;;;;14.23;10.57;;;2.10;99.90;;;;;;5087978;28;20227;-71
2022/12/07 04:43:54;;;;;;;15.77;11.80;;;2.20;99.90;;;;;;5087975;28;20600;-71
2022/12/07 04:46:21;;;;;;;15.73;10.87;;;2.20;99.90;;;;;;5088029;28;20248;-71
2022/12/07 04:48:48;;;;;;;17.27;11.23;;;2.20;99.90;;;;;;5087470;28;20290;-71
2022/12/07 04:51:16;;;;;;;14.97;11.07;;;2.20;99.90;;;;;;5072295;28;20690;-72
2022/12/07 04:53:44;;;;;;;16.50;12.17;;;2.20;99.90;;;;;;5067756;28;20317;-71
2022/12/07 04:56:11;;;;;;;17.67;11.87;;;2.20;99.90;;;;;;5075118;28;20302;-71
2022/12/07 04:58:38;;;;;;;16.83;12.33;;;2.20;99.90;;;;;;5087682;28;20297;-72
2022/12/07 05:01:05;;;;;;;18.47;12.83;;;2.20;99.90;;;;;;5087418;28;20325;-71
2022/12/07 05:03:32;;;;;;;17.20;12.17;;;2.20;99.90;;;;;;5087397;28;20732;-71
2022/12/07 05:05:59;;;;;;;18.47;12.07;;;2.20;99.90;;;;;;5087472;28;20268;-71
2022/12/07 05:08:25;;;;;;;18.47;13.00;;;2.30;99.90;;;;;;5087718;28;20253;-72
2022/12/07 05:10:54;;;;;;;16.93;11.93;;;2.30;99.90;;;;;;5086983;28;20650;-71
2022/12/07 05:13:20;;;;;;;19.30;12.73;;;2.30;99.90;;;;;;5087652;28;20285;-71
2022/12/07 05:15:47;;;;;;;17.80;12.57;;;2.30;99.90;;;;;;5087613;28;20313;-71
2022/12/07 05:18:15;;;;;;;18.20;12.10;;;2.30;99.90;;;;;;5087399;28;20297;-71
2022/12/07 05:20:42;;;;;;;20.83;13.37;;;2.40;99.90;;;;;;5087437;28;20696;-71
2022/12/07 05:23:09;;;;;;;19.50;13.47;;;2.50;99.90;;;;;;5072409;28;20243;-71
2022/12/07 05:25:36;;;;;;;21.67;13.13;;;2.50;99.90;;;;;;5067251;28;20288;-71
2022/12/07 05:28:05;;;;;;;21.07;13.57;;;2.40;99.90;;;;;;5086196;28;20207;-71
2022/12/07 05:30:33;;;;;;;20.27;13.47;;;2.50;99.90;;;;;;5087685;28;20290;-71
2022/12/07 05:32:59;;;;;;;21.97;14.70;;;2.50;99.90;;;;;;5087200;28;20297;-71
2022/12/07 05:35:26;;;;;;;22.63;14.60;;;2.50;99.90;;;;;;5087121;28;20662;-72
2022/12/07 05:37:53;;;;;;;19.70;13.53;;;2.50;99.90;;;;;;5087340;28;20293;-72
2022/12/07 05:40:20;;;;;;;21.93;14.23;;;2.60;99.90;;;;;;5086881;28;20293;-71
2022/12/07 05:42:46;;;;;;;22.20;13.67;;;2.60;99.90;;;;;;5087028;28;20241;-71
2022/12/07 05:45:14;;;;;;;22.60;14.77;;;2.60;99.90;;;;;;5087311;28;20237;-71
2022/12/07 05:47:41;;;;;;;21.70;13.97;;;2.60;99.90;;;;;;5086716;28;20294;-71
2022/12/07 05:50:08;;;;;;;20.37;13.70;;;2.60;99.90;;;;;;5086659;28;20302;-71
2022/12/07 05:52:35;;;;;;;22.20;14.37;;;2.70;99.90;;;;;;5078165;28;20552;-71
2022/12/07 05:55:02;;;;;;;24.03;14.30;;;2.70;99.90;;;;;;5066669;28;20294;-71
2022/12/07 05:57:29;;;;;;;20.73;14.50;;;2.70;99.90;;;;;;5066897;28;20298;-71
2022/12/07 05:59:55;;;;;;;22.57;14.27;;;2.70;99.90;;;;;;5084113;28;20622;-71
2022/12/07 06:02:23;;;;;;;23.73;14.37;;;2.70;99.90;;;;;;5086653;28;20799;-71
2022/12/07 06:04:50;;;;;;;25.43;15.20;;;2.80;99.90;;;;;;5085901;28;20290;-71
2022/12/07 06:07:17;;;;;;;25.67;14.47;;;2.80;99.90;;;;;;5086717;28;20241;-71
2022/12/07 06:09:44;;;;;;;25.47;15.40;;;2.80;99.90;;;;;;5086578;28;20260;-71
2022/12/07 06:14:57;;;;;;;24.17;14.73;;;2.80;99.90;;;;;;5086883;28;20272;-71
2022/12/07 06:17:25;;;;;;;21.70;13.57;;;2.80;99.90;;;;;;5086989;28;20234;-71
2022/12/07 06:19:52;;;;;;;22.43;13.83;;;2.80;99.90;;;;;;5086481;28;20286;-71
2022/12/07 06:22:19;;;;;;;20.87;13.77;;;2.80;99.90;;;;;;5087003;28;20306;-71
2022/12/07 06:24:48;;;;;;;23.73;14.40;;;2.80;99.90;;;;;;5086415;28;20314;-71
2022/12/07 06:27:15;;;;;;;24.53;15.07;;;2.80;99.90;;;;;;5087101;28;20235;-71
2022/12/07 06:29:42;;;;;;;27.73;14.50;;;2.90;99.90;;;;;;5087164;28;20239;-72
2022/12/07 06:32:09;;;;;;;24.80;15.50;;;2.90;99.90;;;;;;5087092;28;20211;-71
2022/12/07 06:34:37;;;;;;;25.50;15.07;;;2.80;99.90;;;;;;5087149;28;20238;-71
2022/12/07 06:37:04;;;;;;;26.53;15.90;;;2.90;99.90;;;;;;5086973;28;20294;-71
2022/12/07 06:39:31;;;;;;;25.30;16.60;;;2.90;99.90;;;;;;5087523;28;20775;-71
2022/12/07 06:41:59;;;;;;;27.07;15.23;;;2.90;99.90;;;;;;5090337;28;20234;-71
2022/12/07 06:44:26;;;;;;;24.43;15.07;;;3.00;99.90;;;;;;5090571;28;20224;-71
2022/12/07 06:46:53;;;;;;;23.83;15.60;;;3.00;99.90;;;;;;5090021;28;20289;-71
2022/12/07 06:49:20;;;;;;;28.60;16.13;;;3.00;99.90;;;;;;5090123;28;20213;-71
2022/12/07 06:51:48;;;;;;;25.43;15.40;;;3.00;99.90;;;;;;5090459;28;20217;-71
2022/12/07 06:54:16;;;;;;;26.63;14.93;;;3.10;99.90;;;;;;5089972;28;20238;-71
2022/12/07 06:56:43;;;;;;;26.17;15.50;;;3.10;99.90;;;;;;5090628;28;20206;-72
2022/12/07 06:59:10;;;;;;;24.57;15.30;;;3.10;99.90;;;;;;5090143;28;20234;-71
2022/12/07 07:01:37;;;;;;;25.73;15.63;;;3.10;99.90;;;;;;5089977;28;20326;-71
2022/12/07 07:04:04;;;;;;;26.50;15.77;;;3.20;99.90;;;;;;5089875;28;20282;-72
2022/12/07 07:06:31;;;;;;;24.10;14.83;;;3.20;99.90;;;;;;5089924;28;20298;-71
2022/12/07 07:09:00;;;;;;;24.93;15.90;;;3.20;99.90;;;;;;5089129;28;20207;-71
2022/12/07 07:11:27;;;;;;;23.73;15.13;;;3.20;99.90;;;;;;5090135;28;20206;-71
2022/12/07 07:13:56;;;;;;;26.27;15.10;;;3.20;99.90;;;;;;5089803;28;20642;-71
2022/12/07 07:16:23;;;;;;;25.80;14.80;;;3.30;99.90;;;;;;5089670;28;20840;-71
2022/12/07 07:18:50;;;;;;;23.90;15.03;;;3.30;99.90;;;;;;5089721;28;20207;-71
2022/12/07 07:21:17;;;;;;;21.57;14.37;;;3.30;99.90;;;;;;5089492;28;20331;-71
2022/12/07 07:23:44;;;;;;;19.93;13.97;;;3.30;99.90;;;;;;5089216;28;20752;-71
2022/12/07 07:26:12;;;;;;;20.87;13.53;;;3.30;99.90;;;;;;5088969;28;20299;-71
2022/12/07 07:28:39;;;;;;;23.13;13.63;;;3.30;99.90;;;;;;5089439;28;20546;-71
2022/12/07 07:31:06;;;;;;;22.13;13.43;;;3.30;99.90;;;;;;5088973;28;20297;-72
2022/12/07 07:33:33;;;;;;;19.77;13.50;;;3.30;99.90;;;;;;5089393;28;20207;-71
2022/12/07 07:36:00;;;;;;;21.90;13.77;;;3.30;99.90;;;;;;5089177;28;20290;-71
2022/12/07 07:38:27;;;;;;;17.63;12.80;;;3.30;99.90;;;;;;5089198;28;20752;-71
2022/12/07 07:40:54;;;;;;;16.73;11.37;;;3.30;99.90;;;;;;5088812;28;20871;-71
2022/12/07 07:43:22;;;;;;;15.33;10.13;;;3.30;99.90;;;;;;5089340;28;20306;-71
2022/12/07 07:45:49;;;;;;;11.53;9.13;;;3.30;99.90;;;;;;5073950;28;20365;-71
2022/12/07 07:48:15;;;;;;;16.70;9.30;;;3.30;99.90;;;;;;5068380;28;20294;-71
2022/12/07 07:50:42;;;;;;;14.73;9.13;;;3.30;99.90;;;;;;5079659;28;20310;-71
2022/12/07 07:53:09;;;;;;;11.50;8.90;;;3.30;99.90;;;;;;5088830;28;20238;-71
2022/12/07 07:55:36;;;;;;;13.47;9.23;;;3.30;99.90;;;;;;5088681;28;20306;-71
2022/12/07 07:58:03;;;;;;;11.40;8.73;;;3.40;99.90;;;;;;5088462;28;20242;-71
2022/12/07 08:00:31;;;;;;;10.40;7.60;;;3.40;99.90;;;;;;5088876;28;20318;-71
2022/12/07 08:02:59;;;;;;;9.17;7.30;;;3.40;99.90;;;;;;5088247;28;20296;-71
2022/12/07 08:05:25;;;;;;;9.33;6.67;;;3.50;99.90;;;;;;5089023;28;20198;-71
2022/12/07 08:07:52;;;;;;;11.10;7.00;;;3.50;99.90;;;;;;5088389;28;20612;-71
2022/12/07 08:10:19;;;;;;;8.00;5.53;;;3.50;99.90;;;;;;5088355;28;20248;-71
2022/12/07 08:15:28;;;;;;;6.90;5.07;;;3.50;99.90;;;;;;5079113;28;20217;-71
2022/12/07 08:17:56;;;;;;;5.97;4.93;;;3.50;99.90;;;;;;5088565;28;20202;-72
2022/12/07 08:20:23;;;;;;;3.90;3.50;;;3.50;99.90;;;;;;5088375;28;20255;-71
2022/12/07 08:22:50;;;;;;;3.60;3.30;;;3.50;99.90;;;;;;5088593;28;20281;-71
2022/12/07 08:25:17;;;;;;;3.60;3.30;;;3.50;99.90;;;;;;5087913;28;20254;-71
2022/12/07 08:27:44;;;;;;;3.03;2.83;;;3.50;99.90;;;;;;5088449;28;20285;-71
2022/12/07 08:30:11;;;;;;;2.10;2.00;;;3.50;99.90;;;;;;5088302;28;20214;-72
2022/12/07 08:32:38;;;;;;;1.73;1.63;;;3.50;99.90;;;;;;5088106;28;20250;-72
2022/12/07 08:35:08;;;;;;;1.80;1.70;;;3.60;99.90;;;;;;5087842;28;20246;-72
2022/12/07 08:37:35;;;;;;;2.63;1.97;;;3.60;99.90;;;;;;5087904;28;20206;-71
2022/12/07 08:40:02;;;;;;;12.47;2.70;;;3.60;99.90;;;;;;5087638;28;20298;-72
2022/12/07 08:42:29;;;;;;;3.43;2.00;;;3.60;99.90;;;;;;5087683;28;20269;-72
2022/12/07 08:44:57;;;;;;;4.07;2.30;;;3.60;99.90;;;;;;5087667;28;20202;-72
2022/12/07 08:47:25;;;;;;;1.87;1.77;;;3.60;99.90;;;;;;5082490;28;20199;-72
2022/12/07 08:49:53;;;;;;;8.00;2.43;;;3.60;99.90;;;;;;5071570;28;20689;-71
2022/12/07 08:52:22;;;;;;;2.53;1.87;;;3.60;99.90;;;;;;5087725;28;20249;-72
2022/12/07 08:54:49;;;;;;;2.10;1.70;;;3.60;99.90;;;;;;5088115;28;20206;-72
2022/12/07 08:57:16;;;;;;;1.70;1.60;;;3.60;99.90;;;;;;5087938;28;20299;-72
2022/12/07 08:59:43;;;;;;;1.90;1.80;;;3.60;99.90;;;;;;5087794;28;20294;-72
2022/12/07 09:02:10;;;;;;;2.37;2.17;;;3.60;99.90;;;;;;5086718;28;20313;-72
2022/12/07 09:04:37;;;;;;;2.10;1.90;;;3.60;99.90;;;;;;5087758;28;20253;-72
2022/12/07 09:07:04;;;;;;;2.03;1.93;;;3.60;99.90;;;;;;5076941;28;20282;-72
2022/12/07 09:09:33;;;;;;;2.93;2.10;;;3.60;99.90;;;;;;5067164;28;20207;-72
2022/12/07 09:12:00;;;;;;;2.20;2.00;;;3.60;99.90;;;;;;5077908;28;20298;-72
2022/12/07 09:14:27;;;;;;;2.77;2.07;;;3.50;99.90;;;;;;5087677;28;20210;-72
2022/12/07 09:16:54;;;;;;;1.87;1.77;;;3.60;99.90;;;;;;5087312;28;20220;-72
2022/12/07 09:19:20;;;;;;;2.13;1.90;;;3.60;99.90;;;;;;5087290;28;20205;-71
2022/12/07 09:21:47;;;;;;;1.50;1.40;;;3.60;99.90;;;;;;5087441;28;20369;-72
2022/12/07 09:24:14;;;;;;;1.60;1.40;;;3.50;99.90;;;;;;5086861;28;20345;-72
2022/12/07 09:26:44;;;;;;;1.50;1.40;;;3.50;99.90;;;;;;5087482;28;20211;-72
2022/12/07 09:29:11;;;;;;;1.13;1.00;;;3.50;99.90;;;;;;5087504;28;20233;-72
2022/12/07 09:31:38;;;;;;;2.30;1.40;;;3.50;99.90;;;;;;5087452;28;20249;-72
2022/12/07 09:34:06;;;;;;;2.90;1.33;;;3.50;99.90;;;;;;5087381;28;20295;-72
2022/12/07 09:36:32;;;;;;;1.60;1.50;;;3.40;99.90;;;;;;5087386;28;20257;-72
2022/12/07 09:39:00;;;;;;;1.40;1.40;;;3.50;99.90;;;;;;5086657;28;20675;-72
2022/12/07 09:41:28;;;;;;;1.80;1.70;;;3.50;99.90;;;;;;5087007;28;20321;-72
2022/12/07 09:44:04;;;;;;;1.83;1.73;;;3.50;99.90;;;;;;5087311;28;20245;-72
2022/12/07 09:46:36;;;;;;;1.50;1.40;;;3.40;99.90;;;;;;5087530;28;20623;-72
2022/12/07 09:49:03;;;;;;;1.50;1.40;;;3.40;99.90;;;;;;5087194;28;20285;-72
2022/12/07 09:51:30;;;;;;;1.67;1.57;;;3.40;99.90;;;;;;5087321;28;20211;-71
2022/12/07 09:53:59;;;;;;;1.70;1.60;;;3.40;99.90;;;;;;5087066;28;20259;-72
2022/12/07 09:56:26;;;;;;;1.50;1.40;;;3.40;99.90;;;;;;5076593;28;20638;-72
2022/12/07 09:58:59;;;;;;;2.13;1.70;;;3.40;99.90;;;;;;5067133;28;20243;-72
2022/12/07 10:01:30;;;;;;;2.53;1.70;;;3.40;99.90;;;;;;5066609;28;20728;-72
2022/12/07 10:04:02;;;;;;;2.33;1.50;;;3.40;99.90;;;;;;5082395;28;20199;-72
2022/12/07 10:06:30;;;;;;;2.40;2.20;;;3.40;99.90;;;;;;5086553;28;20726;-72
2022/12/07 10:08:56;;;;;;;2.10;1.83;;;3.40;99.90;;;;;;5086407;28;20632;-72
2022/12/07 10:11:23;;;;;;;2.93;1.70;;;3.50;99.90;;;;;;5087169;28;20229;-72
2022/12/07 10:13:53;;;;;;;1.73;1.63;;;3.40;99.90;;;;;;5088186;28;20672;-72
2022/12/07 10:16:48;;;;;;;2.60;2.37;;;3.40;99.90;;;;;;5090848;28;20207;-72
2022/12/07 10:19:23;;;;;;;2.90;2.47;;;3.40;99.90;;;;;;5077007;28;20297;-72
2022/12/07 10:22:05;;;;;;;2.93;2.60;;;3.40;99.90;;;;;;5070586;28;20233;-71
2022/12/07 10:24:32;;;;;;;2.30;2.10;;;3.40;99.90;;;;;;5070178;28;20909;-72
2022/12/07 10:26:59;;;;;;;2.30;2.20;;;3.40;99.90;;;;;;5070453;28;20298;-72
2022/12/07 10:29:31;;;;;;;2.00;1.90;;;3.30;99.90;;;;;;5070457;28;20207;-72
2022/12/07 10:32:01;;;;;;;2.20;2.10;;;3.40;99.90;;;;;;5070318;28;20644;-72
2022/12/07 10:34:30;;;;;;;2.20;2.10;;;3.40;99.90;;;;;;5084394;28;20294;-72
2022/12/07 10:37:16;;;;;;;2.23;2.03;;;3.40;99.90;;;;;;5090249;28;20696;-72
2022/12/07 10:39:45;;;;;;;2.47;2.23;;;3.40;99.90;;;;;;5090172;28;20728;-72
2022/12/07 10:42:20;;;;;;;2.50;2.33;;;3.50;99.90;;;;;;5090133;28;20717;-72
2022/12/07 10:44:48;;;;;;;2.37;2.27;;;3.50;99.90;;;;;;5090312;28;20206;-72
2022/12/07 10:47:33;;;;;;;2.80;2.57;;;3.50;99.90;;;;;;5085711;28;20646;-72
2022/12/07 10:50:23;;;;;;;2.40;2.30;;;3.50;99.90;;;;;;5074813;28;20242;-72
2022/12/07 10:53:19;;;;;;;2.60;2.50;;;3.50;99.90;;;;;;5090247;28;20301;-72
2022/12/07 10:56:06;;;;;;;2.50;2.30;;;3.50;99.90;;;;;;5088779;28;20296;-72
2022/12/07 10:58:49;;;;;;;2.77;2.57;;;3.50;99.90;;;;;;5090369;28;20195;-72
2022/12/07 11:01:23;;;;;;;2.37;2.27;;;3.60;99.90;;;;;;5089142;28;20263;-72
2022/12/07 11:04:07;;;;;;;2.60;2.40;;;3.60;99.90;;;;;;5089992;28;20198;-72
2022/12/07 11:06:38;;;;;;;3.50;2.33;;;3.60;99.90;;;;;;5090052;28;20282;-72
2022/12/07 11:09:35;;;;;;;3.27;2.20;;;3.60;99.90;;;;;;5089561;28;20195;-72
2022/12/07 11:12:10;;;;;;;3.37;2.60;;;3.60;99.90;;;;;;5089965;28;20528;-72
2022/12/07 11:14:46;;;;;;;2.50;2.30;;;3.60;99.90;;;;;;5090010;28;20229;-72
2022/12/07 11:17:18;;;;;;;2.30;2.17;;;3.60;99.90;;;;;;5089519;28;20721;-72
2022/12/07 11:20:00;;;;;;;2.40;2.30;;;3.70;99.90;;;;;;5089592;28;20299;-72
2022/12/07 11:22:35;;;;;;;3.10;2.80;;;3.70;99.90;;;;;;5089491;28;20319;-72
2022/12/07 11:25:19;;;;;;;2.63;2.43;;;3.70;99.90;;;;;;5088216;28;20759;-72
2022/12/07 11:28:03;;;;;;;3.90;2.33;;;3.70;99.90;;;;;;5089618;28;20230;-72
2022/12/07 11:30:41;;;;;;;3.07;2.87;;;3.70;99.90;;;;;;5089688;28;20228;-72
2022/12/07 11:33:20;;;;;;;3.77;2.80;;;3.70;99.90;;;;;;5089275;28;20610;-72
2022/12/07 11:35:57;;;;;;;2.93;2.57;;;3.70;99.90;;;;;;5089167;28;20278;-72
2022/12/07 11:38:41;;;;;;;2.73;2.53;;;3.70;99.90;;;;;;5089539;28;20199;-72
2022/12/07 11:41:15;;;;;;;2.30;2.20;;;3.80;99.90;;;;;;5089246;28;20215;-72
2022/12/07 11:43:56;;;;;;;2.73;2.13;;;3.80;99.90;;;;;;5089259;28;20206;-73
2022/12/07 11:46:28;;;;;;;2.53;1.90;;;3.80;99.90;;;;;;5089402;28;20199;-72
2022/12/07 11:49:03;;;;;;;2.73;2.10;;;3.80;99.90;;;;;;5081196;28;20651;-72
2022/12/07 11:51:36;;;;;;;3.77;2.00;;;3.90;99.90;;;;;;5088981;28;20673;-72
2022/12/07 11:54:12;;;;;;;7.83;2.20;;;3.90;99.90;;;;;;5088419;28;20299;-72
2022/12/07 11:56:39;;;;;;;1.60;1.47;;;3.90;99.90;;;;;;5088665;28;20256;-72
2022/12/07 11:59:14;;;;;;;3.27;1.97;;;3.90;99.90;;;;;;5088672;28;20294;-72
2022/12/07 12:01:51;;;;;;;3.23;1.60;;;3.90;99.90;;;;;;5088671;28;20245;-72
2022/12/07 12:04:31;;;;;;;3.20;1.50;;;4.00;99.90;;;;;;5088719;28;20215;-72
2022/12/07 12:07:00;;;;;;;1.63;1.53;;;4.00;99.90;;;;;;5088212;28;20307;-72
2022/12/07 12:09:32;;;;;;;3.93;1.90;;;4.00;99.90;;;;;;5088575;28;20617;-72
2022/12/07 12:12:35;;;;;;;3.70;1.70;;;4.00;99.90;;;;;;5088403;28;20687;-72
2022/12/07 12:15:16;;;;;;;1.60;1.50;;;4.00;99.90;;;;;;5079152;28;20247;-72
2022/12/07 12:18:12;;;;;;;2.10;1.47;;;4.00;99.90;;;;;;5088505;28;20285;-72
2022/12/07 12:20:44;;;;;;;1.87;1.60;;;4.00;99.90;;;;;;5087937;28;20294;-72
2022/12/07 12:23:16;;;;;;;3.97;1.83;;;4.00;99.90;;;;;;5088021;28;20245;-72
2022/12/07 12:25:46;;;;;;;2.73;2.00;;;4.00;99.90;;;;;;5088253;28;20222;-72
2022/12/07 12:28:30;;;;;;;4.53;2.20;;;4.10;99.90;;;;;;5088374;28;20207;-72
2022/12/07 12:31:10;;;;;;;3.17;2.67;;;4.20;99.90;;;;;;5088056;28;20197;-72
2022/12/07 12:33:38;;;;;;;3.03;2.40;;;4.20;99.90;;;;;;5088348;28;20234;-72
2022/12/07 12:36:26;;;;;;;2.20;1.87;;;4.20;99.90;;;;;;5087950;28;20298;-72
2022/12/07 12:42:09;;;;;;;2.83;1.67;;;4.30;99.90;;;;;;5125583;27;21053;-70
2022/12/07 12:44:55;;;;;;;2.13;1.70;;;4.30;99.90;;;;;;5125274;27;20678;-72
2022/12/07 12:47:42;;;;;;;2.70;1.47;;;4.30;99.90;;;;;;5108247;27;20295;-72
2022/12/07 12:50:18;;;;;;;2.07;1.50;;;4.20;99.90;;;;;;5125358;28;20205;-73
2022/12/07 12:53:03;;;;;;;1.53;1.43;;;4.20;99.90;;;;;;5125304;28;20198;-72
2022/12/07 12:56:05;;;;;;;3.20;1.50;;;4.20;99.90;;;;;;5125314;27;20192;-73
2022/12/07 12:58:49;;;;;;;2.80;1.80;;;4.30;99.90;;;;;;5105215;28;20289;-72
2022/12/07 13:01:47;;;;;;;2.67;1.80;;;4.30;99.90;;;;;;5102170;28;20230;-73
2022/12/07 13:04:58;;;;;;;2.40;1.67;;;4.30;99.90;;;;;;5104901;28;20201;-72
2022/12/07 13:08:04;;;;;;;2.27;1.60;;;4.30;99.90;;;;;;5105025;28;20555;-73
2022/12/07 13:10:45;;;;;;;1.83;1.47;;;4.40;99.90;;;;;;5104584;28;20558;-72
2022/12/07 13:13:35;;;;;;;1.67;1.60;;;4.40;99.90;;;;;;5104770;28;20271;-72
2022/12/07 13:16:35;;;;;;;1.90;1.77;;;4.40;99.90;;;;;;5104558;28;20615;-72
2022/12/07 13:19:03;;;;;;;2.53;1.70;;;4.40;99.90;;;;;;5100954;28;20938;-73